sensor_id;sensor_type;location;lat;lon;timestamp;pressure;altitude;pressure_sealevel;temperature;humidity
46583;BME280;32309;48.858;8.252;2024-03-08T00:01:25;100182.38;;;4.42;82.59
46583;BME280;32309;48.858;8.252;2024-03-08T00:03:25;100184.97;;;4.41;83.15
46583;BME280;32309;48.858;8.252;2024-03-08T00:05:26;100180.75;;;4.40;83.54
46583;BME280;32309;48.858;8.252;2024-03-08T00:07:27;100185.88;;;4.40;82.73
46583;BME280;32309;48.858;8.252;2024-03-08T00:09:27;100176.50;;;4.39;82.84
46583;BME280;32309;48.858;8.252;2024-03-08T00:11:28;100179.59;;;4.48;82.61
46583;BME280;32309;48.858;8.252;2024-03-08T00:13:28;100181.97;;;4.55;82.07
46583;BME280;32309;48.858;8.252;2024-03-08T00:15:28;100171.81;;;4.52;82.21
46583;BME280;32309;48.858;8.252;2024-03-08T00:17:29;100173.63;;;4.48;81.95
46583;BME280;32309;48.858;8.252;2024-03-08T00:19:31;100168.75;;;4.40;83.12
46583;BME280;32309;48.858;8.252;2024-03-08T00:21:34;100169.63;;;4.39;82.53
46583;BME280;32309;48.858;8.252;2024-03-08T00:23:34;100168.69;;;4.42;82.37
46583;BME280;32309;48.858;8.252;2024-03-08T00:25:35;100169.44;;;4.45;82.02
46583;BME280;32309;48.858;8.252;2024-03-08T00:27:36;100171.31;;;4.40;82.54
46583;BME280;32309;48.858;8.252;2024-03-08T00:29:36;100159.31;;;4.41;82.72
46583;BME280;32309;48.858;8.252;2024-03-08T00:31:38;100159.53;;;4.35;82.54
46583;BME280;32309;48.858;8.252;2024-03-08T00:33:39;100162.19;;;4.31;82.66
46583;BME280;32309;48.858;8.252;2024-03-08T00:35:39;100153.66;;;4.31;83.02
46583;BME280;32309;48.858;8.252;2024-03-08T00:37:40;100158.91;;;4.28;83.35
46583;BME280;32309;48.858;8.252;2024-03-08T00:39:41;100157.22;;;4.27;82.76
46583;BME280;32309;48.858;8.252;2024-03-08T00:41:42;100150.59;;;4.20;83.65
46583;BME280;32309;48.858;8.252;2024-03-08T00:43:44;100151.59;;;4.15;83.89
46583;BME280;32309;48.858;8.252;2024-03-08T00:45:47;100150.06;;;4.10;83.79
46583;BME280;32309;48.858;8.252;2024-03-08T00:47:47;100154.41;;;4.08;83.38
46583;BME280;32309;48.858;8.252;2024-03-08T00:49:48;100153.75;;;4.03;83.65
46583;BME280;32309;48.858;8.252;2024-03-08T00:51:48;100152.13;;;3.98;83.88
46583;BME280;32309;48.858;8.252;2024-03-08T00:53:48;100154.81;;;3.95;83.88
46583;BME280;32309;48.858;8.252;2024-03-08T00:55:48;100160.94;;;3.91;84.03
46583;BME280;32309;48.858;8.252;2024-03-08T00:57:49;100154.19;;;3.89;84.29
46583;BME280;32309;48.858;8.252;2024-03-08T00:59:49;100154.22;;;3.87;83.96
46583;BME280;32309;48.858;8.252;2024-03-08T01:01:49;100150.69;;;3.91;84.06
46583;BME280;32309;48.858;8.252;2024-03-08T01:03:49;100139.59;;;3.91;84.04
46583;BME280;32309;48.858;8.252;2024-03-08T01:05:50;100148.91;;;3.93;83.21
46583;BME280;32309;48.858;8.252;2024-03-08T01:07:50;100143.81;;;3.92;83.25
46583;BME280;32309;48.858;8.252;2024-03-08T01:09:51;100137.97;;;3.88;83.76
46583;BME280;32309;48.858;8.252;2024-03-08T01:11:51;100140.47;;;3.90;84.08
46583;BME280;32309;48.858;8.252;2024-03-08T01:13:54;100141.28;;;3.90;84.30
46583;BME280;32309;48.858;8.252;2024-03-08T01:15:54;100131.00;;;3.92;84.24
46583;BME280;32309;48.858;8.252;2024-03-08T01:17:55;100131.78;;;3.94;83.37
46583;BME280;32309;48.858;8.252;2024-03-08T01:19:55;100130.97;;;3.93;83.44
46583;BME280;32309;48.858;8.252;2024-03-08T01:21:55;100124.97;;;3.93;83.05
46583;BME280;32309;48.858;8.252;2024-03-08T01:23:56;100124.28;;;3.88;82.80
46583;BME280;32309;48.858;8.252;2024-03-08T01:25:57;100116.66;;;3.86;82.32
46583;BME280;32309;48.858;8.252;2024-03-08T01:27:57;100113.25;;;3.86;83.08
46583;BME280;32309;48.858;8.252;2024-03-08T01:29:57;100110.69;;;3.86;82.91
46583;BME280;32309;48.858;8.252;2024-03-08T01:31:59;100098.69;;;3.86;83.11
46583;BME280;32309;48.858;8.252;2024-03-08T01:34:01;100099.38;;;3.91;83.28
46583;BME280;32309;48.858;8.252;2024-03-08T01:36:02;100100.97;;;3.95;83.75
46583;BME280;32309;48.858;8.252;2024-03-08T01:38:02;100094.91;;;3.98;82.91
46583;BME280;32309;48.858;8.252;2024-03-08T01:40:05;100100.09;;;3.96;82.51
46583;BME280;32309;48.858;8.252;2024-03-08T01:42:07;100086.44;;;3.96;82.30
46583;BME280;32309;48.858;8.252;2024-03-08T01:44:07;100096.69;;;3.96;82.60
46583;BME280;32309;48.858;8.252;2024-03-08T01:46:09;100094.91;;;3.98;83.58
46583;BME280;32309;48.858;8.252;2024-03-08T01:48:12;100088.13;;;3.95;83.00
46583;BME280;32309;48.858;8.252;2024-03-08T01:50:14;100089.00;;;3.96;83.00
46583;BME280;32309;48.858;8.252;2024-03-08T01:52:16;100088.84;;;4.00;84.08
46583;BME280;32309;48.858;8.252;2024-03-08T01:54:19;100076.00;;;4.00;83.13
46583;BME280;32309;48.858;8.252;2024-03-08T01:56:20;100071.13;;;3.93;82.82
46583;BME280;32309;48.858;8.252;2024-03-08T01:58:20;100071.28;;;3.88;82.38
46583;BME280;32309;48.858;8.252;2024-03-08T02:00:22;100069.41;;;3.93;83.06
46583;BME280;32309;48.858;8.252;2024-03-08T02:02:23;100065.13;;;3.94;83.24
46583;BME280;32309;48.858;8.252;2024-03-08T02:04:25;100056.63;;;3.92;83.34
46583;BME280;32309;48.858;8.252;2024-03-08T02:06:25;100056.63;;;3.92;82.79
46583;BME280;32309;48.858;8.252;2024-03-08T02:08:25;100051.47;;;3.93;82.99
46583;BME280;32309;48.858;8.252;2024-03-08T02:10:26;100047.28;;;3.91;82.36
46583;BME280;32309;48.858;8.252;2024-03-08T02:12:26;100047.38;;;3.88;83.26
46583;BME280;32309;48.858;8.252;2024-03-08T02:14:27;100046.59;;;3.86;82.49
46583;BME280;32309;48.858;8.252;2024-03-08T02:16:27;100043.19;;;3.85;83.42
46583;BME280;32309;48.858;8.252;2024-03-08T02:18:28;100044.09;;;3.84;83.54
46583;BME280;32309;48.858;8.252;2024-03-08T02:20:29;100042.53;;;3.78;83.29
46583;BME280;32309;48.858;8.252;2024-03-08T02:22:30;100042.72;;;3.74;82.95
46583;BME280;32309;48.858;8.252;2024-03-08T02:24:33;100041.03;;;3.73;83.29
46583;BME280;32309;48.858;8.252;2024-03-08T02:26:34;100045.22;;;3.75;83.20
46583;BME280;32309;48.858;8.252;2024-03-08T02:28:35;100038.53;;;3.71;83.45
46583;BME280;32309;48.858;8.252;2024-03-08T02:30:38;100034.41;;;3.65;82.97
46583;BME280;32309;48.858;8.252;2024-03-08T02:32:39;100029.56;;;3.58;82.08
46583;BME280;32309;48.858;8.252;2024-03-08T02:34:39;100027.19;;;3.52;82.22
46583;BME280;32309;48.858;8.252;2024-03-08T02:36:39;100026.38;;;3.49;82.41
46583;BME280;32309;48.858;8.252;2024-03-08T02:38:40;100022.94;;;3.50;82.56
46583;BME280;32309;48.858;8.252;2024-03-08T02:40:43;100023.88;;;3.48;82.00
46583;BME280;32309;48.858;8.252;2024-03-08T02:42:43;100023.81;;;3.49;82.33
46583;BME280;32309;48.858;8.252;2024-03-08T02:44:44;100019.44;;;3.53;82.19
46583;BME280;32309;48.858;8.252;2024-03-08T02:46:44;100018.69;;;3.51;82.00
46583;BME280;32309;48.858;8.252;2024-03-08T02:48:48;100018.81;;;3.46;81.56
46583;BME280;32309;48.858;8.252;2024-03-08T02:50:48;100022.38;;;3.42;82.14
46583;BME280;32309;48.858;8.252;2024-03-08T02:52:51;100020.56;;;3.44;82.28
46583;BME280;32309;48.858;8.252;2024-03-08T02:54:51;100014.56;;;3.45;82.31
46583;BME280;32309;48.858;8.252;2024-03-08T02:56:51;100006.09;;;3.43;81.99
46583;BME280;32309;48.858;8.252;2024-03-08T02:58:55;100012.16;;;3.41;82.06
46583;BME280;32309;48.858;8.252;2024-03-08T03:00:56;100007.19;;;3.36;82.28
46583;BME280;32309;48.858;8.252;2024-03-08T03:02:57;100011.53;;;3.34;82.16
46583;BME280;32309;48.858;8.252;2024-03-08T03:04:57;100008.28;;;3.29;81.79
46583;BME280;32309;48.858;8.252;2024-03-08T03:06:58;100007.41;;;3.30;81.23
46583;BME280;32309;48.858;8.252;2024-03-08T03:08:58;100005.00;;;3.24;80.84
46583;BME280;32309;48.858;8.252;2024-03-08T03:10:59;100000.19;;;3.14;80.81
46583;BME280;32309;48.858;8.252;2024-03-08T03:12:59;100001.25;;;3.07;80.96
46583;BME280;32309;48.858;8.252;2024-03-08T03:14:59;100001.28;;;3.06;81.83
46583;BME280;32309;48.858;8.252;2024-03-08T03:16:59;99996.13;;;3.07;81.52
46583;BME280;32309;48.858;8.252;2024-03-08T03:19:00;99989.25;;;3.09;81.59
46583;BME280;32309;48.858;8.252;2024-03-08T03:21:01;99988.44;;;3.07;81.44
46583;BME280;32309;48.858;8.252;2024-03-08T03:23:07;99990.16;;;3.07;81.74
46583;BME280;32309;48.858;8.252;2024-03-08T03:25:08;99987.50;;;3.10;82.09
46583;BME280;32309;48.858;8.252;2024-03-08T03:27:09;99987.50;;;3.10;82.87
46583;BME280;32309;48.858;8.252;2024-03-08T03:29:12;99987.44;;;3.11;82.55
46583;BME280;32309;48.858;8.252;2024-03-08T03:31:13;99983.97;;;3.14;82.76
46583;BME280;32309;48.858;8.252;2024-03-08T03:33:14;99978.81;;;3.15;82.90
46583;BME280;32309;48.858;8.252;2024-03-08T03:35:19;99970.28;;;3.15;82.62
46583;BME280;32309;48.858;8.252;2024-03-08T03:37:21;99979.69;;;3.14;82.72
46583;BME280;32309;48.858;8.252;2024-03-08T03:39:21;99973.63;;;3.17;82.68
46583;BME280;32309;48.858;8.252;2024-03-08T03:41:22;99973.69;;;3.15;82.69
46583;BME280;32309;48.858;8.252;2024-03-08T03:43:23;99967.66;;;3.16;82.93
46583;BME280;32309;48.858;8.252;2024-03-08T03:45:23;99970.28;;;3.15;82.51
46583;BME280;32309;48.858;8.252;2024-03-08T03:47:24;99961.13;;;3.08;82.39
46583;BME280;32309;48.858;8.252;2024-03-08T03:49:24;99965.59;;;3.01;82.14
46583;BME280;32309;48.858;8.252;2024-03-08T03:51:24;99973.41;;;2.96;82.01
46583;BME280;32309;48.858;8.252;2024-03-08T03:53:25;99965.91;;;2.90;82.07
46583;BME280;32309;48.858;8.252;2024-03-08T03:55:27;99962.53;;;2.90;82.24
46583;BME280;32309;48.858;8.252;2024-03-08T03:57:28;99963.34;;;2.90;82.33
46583;BME280;32309;48.858;8.252;2024-03-08T03:59:29;99963.34;;;2.90;82.51
46583;BME280;32309;48.858;8.252;2024-03-08T04:01:29;99964.22;;;2.91;82.47
46583;BME280;32309;48.858;8.252;2024-03-08T04:03:29;99964.06;;;2.95;82.40
46583;BME280;32309;48.858;8.252;2024-03-08T04:05:30;99964.91;;;2.96;82.34
46583;BME280;32309;48.858;8.252;2024-03-08T04:07:30;99958.97;;;2.94;81.65
46583;BME280;32309;48.858;8.252;2024-03-08T04:09:31;99959.16;;;2.88;81.75
46583;BME280;32309;48.858;8.252;2024-03-08T04:11:31;99960.91;;;2.87;82.66
46583;BME280;32309;48.858;8.252;2024-03-08T04:13:32;99950.81;;;2.82;82.19
46583;BME280;32309;48.858;8.252;2024-03-08T04:15:32;99957.63;;;2.82;82.34
46583;BME280;32309;48.858;8.252;2024-03-08T04:17:34;99950.06;;;2.79;81.93
46583;BME280;32309;48.858;8.252;2024-03-08T04:19:38;99954.53;;;2.72;81.38
46583;BME280;32309;48.858;8.252;2024-03-08T04:21:39;99948.72;;;2.67;82.12
46583;BME280;32309;48.858;8.252;2024-03-08T04:23:39;99946.97;;;2.67;82.10
46583;BME280;32309;48.858;8.252;2024-03-08T04:25:43;99945.22;;;2.70;81.68
46583;BME280;32309;48.858;8.252;2024-03-08T04:27:43;99948.81;;;2.64;81.63
46583;BME280;32309;48.858;8.252;2024-03-08T04:29:44;99938.56;;;2.64;82.20
46583;BME280;32309;48.858;8.252;2024-03-08T04:31:44;99948.84;;;2.62;81.84
46583;BME280;32309;48.858;8.252;2024-03-08T04:33:45;99943.72;;;2.62;82.80
46583;BME280;32309;48.858;8.252;2024-03-08T04:35:45;99949.59;;;2.66;83.11
46583;BME280;32309;48.858;8.252;2024-03-08T04:37:46;99943.50;;;2.70;81.87
46583;BME280;32309;48.858;8.252;2024-03-08T04:39:46;99939.25;;;2.69;81.64
46583;BME280;32309;48.858;8.252;2024-03-08T04:41:46;99938.47;;;2.67;81.57
46583;BME280;32309;48.858;8.252;2024-03-08T04:43:47;99940.34;;;2.62;82.58
46583;BME280;32309;48.858;8.252;2024-03-08T04:45:47;99932.75;;;2.59;81.53
46583;BME280;32309;48.858;8.252;2024-03-08T04:47:48;99931.13;;;2.56;81.65
46583;BME280;32309;48.858;8.252;2024-03-08T04:49:48;99933.75;;;2.53;82.61
46583;BME280;32309;48.858;8.252;2024-03-08T04:51:50;99938.75;;;2.58;82.95
46583;BME280;32309;48.858;8.252;2024-03-08T04:53:50;99937.81;;;2.60;83.36
46583;BME280;32309;48.858;8.252;2024-03-08T04:55:50;99934.38;;;2.61;83.03
46583;BME280;32309;48.858;8.252;2024-03-08T04:57:51;99930.91;;;2.64;82.65
46583;BME280;32309;48.858;8.252;2024-03-08T04:59:51;99931.03;;;2.59;82.11
46583;BME280;32309;48.858;8.252;2024-03-08T05:01:51;99930.28;;;2.56;82.04
46583;BME280;32309;48.858;8.252;2024-03-08T05:03:51;99926.22;;;2.48;82.07
46583;BME280;32309;48.858;8.252;2024-03-08T05:05:55;99929.72;;;2.46;82.02
46583;BME280;32309;48.858;8.252;2024-03-08T05:07:56;99921.28;;;2.42;81.92
46583;BME280;32309;48.858;8.252;2024-03-08T05:09:56;99931.63;;;2.39;81.85
46583;BME280;32309;48.858;8.252;2024-03-08T05:11:56;99923.25;;;2.34;81.77
46583;BME280;32309;48.858;8.252;2024-03-08T05:13:59;99928.47;;;2.31;82.14
46583;BME280;32309;48.858;8.252;2024-03-08T05:16:00;99926.78;;;2.30;82.08
46583;BME280;32309;48.858;8.252;2024-03-08T05:18:03;99926.78;;;2.30;82.02
46583;BME280;32309;48.858;8.252;2024-03-08T05:20:03;99925.13;;;2.27;81.99
46583;BME280;32309;48.858;8.252;2024-03-08T05:22:08;99910.78;;;2.23;82.04
46583;BME280;32309;48.858;8.252;2024-03-08T05:24:11;99918.47;;;2.22;81.80
46583;BME280;32309;48.858;8.252;2024-03-08T05:26:11;99928.94;;;2.14;81.68
46583;BME280;32309;48.858;8.252;2024-03-08T05:28:12;99923.84;;;2.12;82.10
46583;BME280;32309;48.858;8.252;2024-03-08T05:30:13;99920.56;;;2.09;81.82
46583;BME280;32309;48.858;8.252;2024-03-08T05:32:14;99912.94;;;2.07;82.23
46583;BME280;32309;48.858;8.252;2024-03-08T05:34:18;99913.84;;;2.05;82.05
46583;BME280;32309;48.858;8.252;2024-03-08T05:36:19;99925.97;;;1.98;82.37
46583;BME280;32309;48.858;8.252;2024-03-08T05:38:19;99918.31;;;1.96;82.15
46583;BME280;32309;48.858;8.252;2024-03-08T05:40:21;99920.94;;;1.95;82.69
46583;BME280;32309;48.858;8.252;2024-03-08T05:42:23;99918.31;;;1.96;82.35
46583;BME280;32309;48.858;8.252;2024-03-08T05:44:24;99911.63;;;1.92;82.68
46583;BME280;32309;48.858;8.252;2024-03-08T05:46:24;99915.81;;;1.95;82.82
46583;BME280;32309;48.858;8.252;2024-03-08T05:48:24;99907.38;;;1.93;82.45
46583;BME280;32309;48.858;8.252;2024-03-08T05:50:25;99912.53;;;1.90;82.51
46583;BME280;32309;48.858;8.252;2024-03-08T05:52:25;99908.34;;;1.87;82.55
46583;BME280;32309;48.858;8.252;2024-03-08T05:54:26;99905.00;;;1.85;82.87
46583;BME280;32309;48.858;8.252;2024-03-08T05:56:29;99908.44;;;1.84;83.12
46583;BME280;32309;48.858;8.252;2024-03-08T05:58:30;99910.38;;;1.76;82.73
46583;BME280;32309;48.858;8.252;2024-03-08T06:00:31;99901.94;;;1.72;83.46
46583;BME280;32309;48.858;8.252;2024-03-08T06:02:31;99908.78;;;1.72;83.60
46583;BME280;32309;48.858;8.252;2024-03-08T06:04:32;99903.69;;;1.72;83.80
46583;BME280;32309;48.858;8.252;2024-03-08T06:06:32;99902.97;;;1.66;83.99
46583;BME280;32309;48.858;8.252;2024-03-08T06:08:32;99902.97;;;1.66;84.23
46583;BME280;32309;48.858;8.252;2024-03-08T06:10:33;99903.94;;;1.62;84.24
46583;BME280;32309;48.858;8.252;2024-03-08T06:12:33;99903.13;;;1.60;84.91
46583;BME280;32309;48.858;8.252;2024-03-08T06:14:40;99896.22;;;1.64;84.67
46583;BME280;32309;48.858;8.252;2024-03-08T06:16:40;99906.38;;;1.65;84.23
46583;BME280;32309;48.858;8.252;2024-03-08T06:18:40;99903.00;;;1.65;84.37
46583;BME280;32309;48.858;8.252;2024-03-08T06:20:41;99898.78;;;1.64;84.56
46583;BME280;32309;48.858;8.252;2024-03-08T06:22:43;99898.06;;;1.59;85.02
46583;BME280;32309;48.858;8.252;2024-03-08T06:24:47;99904.06;;;1.56;85.42
46583;BME280;32309;48.858;8.252;2024-03-08T06:26:48;99904.78;;;1.61;85.02
46583;BME280;32309;48.858;8.252;2024-03-08T06:28:48;99899.59;;;1.64;84.92
46583;BME280;32309;48.858;8.252;2024-03-08T06:30:49;99894.47;;;1.64;85.33
46583;BME280;32309;48.858;8.252;2024-03-08T06:32:51;99899.69;;;1.61;85.26
46583;BME280;32309;48.858;8.252;2024-03-08T06:34:51;99896.31;;;1.59;85.76
46583;BME280;32309;48.858;8.252;2024-03-08T06:36:51;99901.31;;;1.64;85.53
46583;BME280;32309;48.858;8.252;2024-03-08T06:38:52;99899.44;;;1.71;86.22
46583;BME280;32309;48.858;8.252;2024-03-08T06:40:53;99907.88;;;1.73;85.87
46583;BME280;32309;48.858;8.252;2024-03-08T06:42:54;99906.97;;;1.75;85.70
46583;BME280;32309;48.858;8.252;2024-03-08T06:44:55;99902.56;;;1.80;85.55
46583;BME280;32309;48.858;8.252;2024-03-08T06:46:59;99905.94;;;1.82;85.48
46583;BME280;32309;48.858;8.252;2024-03-08T06:49:00;99902.47;;;1.85;85.32
46583;BME280;32309;48.858;8.252;2024-03-08T06:51:03;99907.47;;;1.88;85.24
46583;BME280;32309;48.858;8.252;2024-03-08T06:53:04;99905.72;;;1.90;85.58
46583;BME280;32309;48.858;8.252;2024-03-08T06:55:04;99899.69;;;1.93;85.34
46583;BME280;32309;48.858;8.252;2024-03-08T06:57:05;99891.06;;;1.97;85.37
46583;BME280;32309;48.858;8.252;2024-03-08T06:59:05;99882.28;;;2.06;84.99
46583;BME280;32309;48.858;8.252;2024-03-08T07:01:10;99894.88;;;2.12;84.85
46583;BME280;32309;48.858;8.252;2024-03-08T07:03:13;99887.94;;;2.17;84.44
46583;BME280;32309;48.858;8.252;2024-03-08T07:05:17;99887.88;;;2.19;85.06
46583;BME280;32309;48.858;8.252;2024-03-08T07:07:18;99890.22;;;2.26;84.47
46583;BME280;32309;48.858;8.252;2024-03-08T07:09:20;99893.47;;;2.31;84.77
46583;BME280;32309;48.858;8.252;2024-03-08T07:11:20;99891.41;;;2.43;84.15
46583;BME280;32309;48.858;8.252;2024-03-08T07:13:21;99887.16;;;2.43;84.58
46583;BME280;32309;48.858;8.252;2024-03-08T07:15:22;99888.63;;;2.50;84.45
46583;BME280;32309;48.858;8.252;2024-03-08T07:17:23;99890.19;;;2.56;84.52
46583;BME280;32309;48.858;8.252;2024-03-08T07:19:27;99886.53;;;2.63;84.02
46583;BME280;32309;48.858;8.252;2024-03-08T07:21:27;99885.56;;;2.67;83.77
46583;BME280;32309;48.858;8.252;2024-03-08T07:23:29;99886.22;;;2.74;83.64
46583;BME280;32309;48.858;8.252;2024-03-08T07:26:02;99879.16;;;2.81;83.59
46583;BME280;32309;48.858;8.252;2024-03-08T07:28:05;99881.66;;;2.84;83.75
46583;BME280;32309;48.858;8.252;2024-03-08T07:30:06;99879.63;;;2.94;83.07
46583;BME280;32309;48.858;8.252;2024-03-08T07:32:10;99880.31;;;2.99;83.32
46583;BME280;32309;48.858;8.252;2024-03-08T07:34:20;99867.25;;;3.07;82.76
46583;BME280;32309;48.858;8.252;2024-03-08T07:36:21;99876.47;;;3.12;82.29
46583;BME280;32309;48.858;8.252;2024-03-08T07:38:22;99877.88;;;3.21;82.19
46583;BME280;32309;48.858;8.252;2024-03-08T07:40:23;99876.94;;;3.24;81.88
46583;BME280;32309;48.858;8.252;2024-03-08T07:42:26;99874.97;;;3.32;80.83
46583;BME280;32309;48.858;8.252;2024-03-08T07:44:28;99874.84;;;3.35;81.12
46583;BME280;32309;48.858;8.252;2024-03-08T07:46:30;99872.03;;;3.43;80.67
46583;BME280;32309;48.858;8.252;2024-03-08T07:48:31;99871.09;;;3.45;80.53
46583;BME280;32309;48.858;8.252;2024-03-08T07:50:31;99857.25;;;3.51;80.05
46583;BME280;32309;48.858;8.252;2024-03-08T07:52:36;99857.94;;;3.55;80.51
46583;BME280;32309;48.858;8.252;2024-03-08T07:54:36;99863.81;;;3.58;80.10
46583;BME280;32309;48.858;8.252;2024-03-08T07:56:40;99864.38;;;3.66;80.08
46583;BME280;32309;48.858;8.252;2024-03-08T07:58:40;99864.16;;;3.73;79.22
46583;BME280;32309;48.858;8.252;2024-03-08T08:00:43;99861.53;;;3.74;79.55
46583;BME280;32309;48.858;8.252;2024-03-08T08:02:44;99860.66;;;3.75;79.94
46583;BME280;32309;48.858;8.252;2024-03-08T08:04:45;99854.41;;;3.82;80.11
46583;BME280;32309;48.858;8.252;2024-03-08T08:06:46;99854.06;;;3.92;79.49
46583;BME280;32309;48.858;8.252;2024-03-08T08:08:46;99858.09;;;3.99;79.58
46583;BME280;32309;48.858;8.252;2024-03-08T08:10:47;99860.66;;;3.99;79.10
46583;BME280;32309;48.858;8.252;2024-03-08T08:12:47;99856.63;;;4.15;77.12
46583;BME280;32309;48.858;8.252;2024-03-08T08:14:48;99853.38;;;4.10;78.25
46583;BME280;32309;48.858;8.252;2024-03-08T08:16:48;99851.59;;;4.12;78.37
46583;BME280;32309;48.858;8.252;2024-03-08T08:18:52;99855.84;;;4.13;79.12
46583;BME280;32309;48.858;8.252;2024-03-08T08:20:52;99856.47;;;4.20;79.58
46583;BME280;32309;48.858;8.252;2024-03-08T08:22:53;99856.03;;;4.31;78.29
46583;BME280;32309;48.858;8.252;2024-03-08T08:24:55;99856.09;;;4.29;78.17
46583;BME280;32309;48.858;8.252;2024-03-08T08:26:55;99848.19;;;4.36;78.66
46583;BME280;32309;48.858;8.252;2024-03-08T08:28:56;99849.72;;;4.40;78.39
46583;BME280;32309;48.858;8.252;2024-03-08T08:30:56;99844.25;;;4.49;77.76
46583;BME280;32309;48.858;8.252;2024-03-08T08:32:56;99843.88;;;4.58;77.33
46583;BME280;32309;48.858;8.252;2024-03-08T08:35:00;99844.22;;;4.71;76.95
46583;BME280;32309;48.858;8.252;2024-03-08T08:37:02;99835.69;;;4.71;77.18
46583;BME280;32309;48.858;8.252;2024-03-08T08:39:02;99830.31;;;4.77;77.13
46583;BME280;32309;48.858;8.252;2024-03-08T08:41:03;99824.78;;;4.86;76.28
46583;BME280;32309;48.858;8.252;2024-03-08T08:43:04;99826.47;;;4.87;76.78
46583;BME280;32309;48.858;8.252;2024-03-08T08:45:07;99828.59;;;4.98;77.09
46583;BME280;32309;48.858;8.252;2024-03-08T08:47:09;99822.59;;;5.18;75.30
46583;BME280;32309;48.858;8.252;2024-03-08T08:49:09;99825.97;;;5.20;75.08
46583;BME280;32309;48.858;8.252;2024-03-08T08:51:11;99829.50;;;5.18;75.37
46583;BME280;32309;48.858;8.252;2024-03-08T08:53:15;99821.41;;;5.27;75.04
46583;BME280;32309;48.858;8.252;2024-03-08T08:55:17;99824.53;;;5.33;74.79
46583;BME280;32309;48.858;8.252;2024-03-08T08:57:20;99822.06;;;5.30;73.65
46583;BME280;32309;48.858;8.252;2024-03-08T08:59:21;99824.31;;;5.38;74.89
46583;BME280;32309;48.858;8.252;2024-03-08T09:01:23;99818.94;;;5.44;74.99
46583;BME280;32309;48.858;8.252;2024-03-08T09:03:23;99817.63;;;5.55;73.47
46583;BME280;32309;48.858;8.252;2024-03-08T09:05:25;99819.16;;;5.59;73.08
46583;BME280;32309;48.858;8.252;2024-03-08T09:07:26;99814.31;;;5.72;71.23
46583;BME280;32309;48.858;8.252;2024-03-08T09:09:34;99817.16;;;5.65;71.25
46583;BME280;32309;48.858;8.252;2024-03-08T09:11:34;99808.88;;;5.59;72.33
46583;BME280;32309;48.858;8.252;2024-03-08T09:13:35;99810.63;;;5.58;73.00
46583;BME280;32309;48.858;8.252;2024-03-08T09:15:35;99816.59;;;5.59;73.81
46583;BME280;32309;48.858;8.252;2024-03-08T09:17:36;99808.88;;;5.59;73.42
46583;BME280;32309;48.858;8.252;2024-03-08T09:19:39;99812.16;;;5.62;73.44
46583;BME280;32309;48.858;8.252;2024-03-08T09:21:39;99811.94;;;5.67;72.95
46583;BME280;32309;48.858;8.252;2024-03-08T09:23:40;99815.13;;;5.72;71.36
46583;BME280;32309;48.858;8.252;2024-03-08T09:25:41;99803.72;;;5.78;70.34
46583;BME280;32309;48.858;8.252;2024-03-08T09:27:41;99805.47;;;5.77;71.90
46583;BME280;32309;48.858;8.252;2024-03-08T09:29:41;99802.63;;;5.83;70.97
46583;BME280;32309;48.858;8.252;2024-03-08T09:31:46;99806.75;;;5.88;70.62
46583;BME280;32309;48.858;8.252;2024-03-08T09:33:47;99808.59;;;5.84;71.49
46583;BME280;32309;48.858;8.252;2024-03-08T09:35:47;99808.75;;;5.81;71.89
46583;BME280;32309;48.858;8.252;2024-03-08T09:37:48;99798.41;;;5.82;71.38
46583;BME280;32309;48.858;8.252;2024-03-08T09:39:51;99798.31;;;5.84;71.67
46583;BME280;32309;48.858;8.252;2024-03-08T09:41:51;99795.75;;;5.84;71.04
46583;BME280;32309;48.858;8.252;2024-03-08T09:43:52;99788.03;;;5.84;71.58
46583;BME280;32309;48.858;8.252;2024-03-08T09:45:53;99790.19;;;5.93;70.91
46583;BME280;32309;48.858;8.252;2024-03-08T09:47:55;99778.75;;;6.01;69.91
46583;BME280;32309;48.858;8.252;2024-03-08T09:49:55;99780.59;;;5.97;70.31
46583;BME280;32309;48.858;8.252;2024-03-08T09:51:56;99777.81;;;6.02;70.71
46583;BME280;32309;48.858;8.252;2024-03-08T09:53:56;99774.28;;;6.04;70.55
46583;BME280;32309;48.858;8.252;2024-03-08T09:56:00;99775.41;;;5.98;70.55
46583;BME280;32309;48.858;8.252;2024-03-08T09:58:05;99763.38;;;5.99;71.14
46583;BME280;32309;48.858;8.252;2024-03-08T10:00:25;99760.34;;;6.08;70.18
46583;BME280;32309;48.858;8.252;2024-03-08T10:02:25;99756.97;;;6.08;71.00
46583;BME280;32309;48.858;8.252;2024-03-08T10:04:25;99754.31;;;6.09;71.13
46583;BME280;32309;48.858;8.252;2024-03-08T10:06:28;99753.22;;;6.15;71.84
46583;BME280;32309;48.858;8.252;2024-03-08T10:08:28;99748.72;;;6.19;72.09
46583;BME280;32309;48.858;8.252;2024-03-08T10:10:29;99746.03;;;6.22;71.28
46583;BME280;32309;48.858;8.252;2024-03-08T10:12:29;99752.53;;;6.29;71.64
46583;BME280;32309;48.858;8.252;2024-03-08T10:14:32;99744.59;;;6.33;72.25
46583;BME280;32309;48.858;8.252;2024-03-08T10:16:38;99736.47;;;6.41;71.89
46583;BME280;32309;48.858;8.252;2024-03-08T10:18:39;99734.88;;;6.39;70.32
46583;BME280;32309;48.858;8.252;2024-03-08T10:20:40;99740.13;;;6.37;71.28
46583;BME280;32309;48.858;8.252;2024-03-08T10:22:41;99727.94;;;6.41;72.25
46583;BME280;32309;48.858;8.252;2024-03-08T10:24:46;99735.53;;;6.61;70.32
46583;BME280;32309;48.858;8.252;2024-03-08T10:26:46;99734.00;;;6.75;69.90
46583;BME280;32309;48.858;8.252;2024-03-08T10:28:48;99728.38;;;6.84;69.38
46583;BME280;32309;48.858;8.252;2024-03-08T10:30:48;99720.97;;;6.78;69.60
46583;BME280;32309;48.858;8.252;2024-03-08T10:32:49;99721.03;;;6.76;70.33
46583;BME280;32309;48.858;8.252;2024-03-08T10:34:49;99712.94;;;6.84;69.99
46583;BME280;32309;48.858;8.252;2024-03-08T10:36:50;99717.53;;;6.95;70.06
46583;BME280;32309;48.858;8.252;2024-03-08T10:38:51;99716.81;;;7.09;68.37
46583;BME280;32309;48.858;8.252;2024-03-08T10:40:53;99710.13;;;7.05;68.44
46583;BME280;32309;48.858;8.252;2024-03-08T10:42:56;99713.78;;;7.00;68.83
46583;BME280;32309;48.858;8.252;2024-03-08T10:45:02;99713.06;;;6.98;69.45
46583;BME280;32309;48.858;8.252;2024-03-08T10:47:17;99709.50;;;7.01;69.97
46583;BME280;32309;48.858;8.252;2024-03-08T10:49:19;99701.19;;;7.12;69.05